Time;durP1;ratioP1;P1;durP2;ratioP2;P2;SDS_P1;SDS_P2;PMS_P1;PMS_P2;Temp;Humidity;BMP_temperature;BMP_pressure;BME280_temperature;BME280_humidity;BME280_pressure;Samples;Min_cycle;Max_cycle;Signal;HPM_P1;HPM_P2
2023/07/15 00:00:13;;;;;;;1999.90;999.90;;;20.00;96.40;;;;;;5076026;28;20119;-72
2023/07/15 00:02:41;;;;;;;1999.90;999.90;;;19.90;96.40;;;;;;5075421;28;20036;-71
2023/07/15 00:05:20;;;;;;;1999.90;999.90;;;19.90;96.40;;;;;;5075874;28;20077;-72
2023/07/15 00:07:47;;;;;;;1999.90;999.90;;;19.90;96.60;;;;;;5075935;28;20032;-71
2023/07/15 00:10:13;;;;;;;1999.90;999.90;;;20.00;96.30;;;;;;5076069;28;20072;-72
2023/07/15 00:12:39;;;;;;;1999.90;999.90;;;20.00;95.80;;;;;;5075376;28;20029;-72
2023/07/15 00:15:06;;;;;;;1999.90;999.90;;;20.20;95.40;;;;;;5075409;28;20099;-72
2023/07/15 00:17:32;;;;;;;1999.90;999.90;;;20.40;95.10;;;;;;5075488;28;20044;-71
2023/07/15 00:19:57;;;;;;;1999.90;999.90;;;20.50;95.00;;;;;;5075493;28;20072;-71
2023/07/15 00:22:23;;;;;;;1999.90;999.90;;;20.50;94.60;;;;;;5074842;28;20529;-72
2023/07/15 00:24:48;;;;;;;1999.90;999.90;;;20.50;94.30;;;;;;5074727;28;20037;-71
2023/07/15 00:27:14;;;;;;;1999.90;999.90;;;20.60;94.20;;;;;;5075456;28;20390;-71
2023/07/15 00:29:39;;;;;;;1999.90;999.90;;;20.70;94.20;;;;;;5075368;28;20028;-71
2023/07/15 00:32:11;;;;;;;1999.90;999.90;;;20.70;94.10;;;;;;5074964;28;20889;-72
2023/07/15 00:34:37;;;;;;;1999.90;999.90;;;20.60;93.90;;;;;;5075562;28;20040;-72
2023/07/15 00:37:03;;;;;;;1999.90;999.90;;;20.50;94.20;;;;;;5075396;28;20068;-71
2023/07/15 00:39:29;;;;;;;1999.90;999.90;;;20.50;94.40;;;;;;5075100;28;20041;-72
2023/07/15 00:41:57;;;;;;;1999.90;999.90;;;20.40;94.40;;;;;;5074755;28;20032;-71
2023/07/15 00:44:22;;;;;;;1999.90;999.90;;;20.40;94.60;;;;;;5056965;28;20136;-71
2023/07/15 00:47:12;;;;;;;1999.90;999.90;;;20.40;94.60;;;;;;5075249;28;20029;-71
2023/07/15 00:49:38;;;;;;;1999.90;999.90;;;20.40;94.80;;;;;;5075414;28;20068;-71
2023/07/15 00:52:10;;;;;;;1999.90;999.90;;;20.40;94.60;;;;;;5073923;28;20037;-72
2023/07/15 00:54:42;;;;;;;1999.90;999.90;;;20.40;94.40;;;;;;5074990;28;20076;-72
2023/07/15 00:57:13;;;;;;;1999.90;999.90;;;20.50;94.30;;;;;;5075149;28;20025;-72
2023/07/15 00:59:40;;;;;;;1999.90;999.90;;;20.40;94.20;;;;;;5074826;28;20045;-72
2023/07/15 01:02:07;;;;;;;1999.90;999.90;;;20.50;94.00;;;;;;5074626;28;20029;-72
2023/07/15 01:04:33;;;;;;;1999.90;999.90;;;20.50;94.00;;;;;;5074882;28;20498;-71
2023/07/15 01:06:58;;;;;;;1999.90;999.90;;;20.50;93.80;;;;;;5074667;28;20040;-71
2023/07/15 01:09:25;;;;;;;1999.90;999.90;;;20.50;94.10;;;;;;5075024;28;20033;-71
2023/07/15 01:11:50;;;;;;;1999.90;999.90;;;20.40;94.20;;;;;;5074513;28;20029;-71
2023/07/15 01:14:16;;;;;;;1999.90;999.90;;;20.30;94.40;;;;;;5074815;28;20037;-71
2023/07/15 01:16:41;;;;;;;1999.90;999.90;;;20.20;94.50;;;;;;5074864;28;20068;-71
2023/07/15 01:19:07;;;;;;;1999.90;999.90;;;20.30;94.80;;;;;;5074754;28;20862;-72
2023/07/15 01:21:36;;;;;;;1999.90;999.90;;;20.20;94.90;;;;;;5073963;28;20536;-72
2023/07/15 01:24:03;;;;;;;1999.90;999.90;;;20.20;94.70;;;;;;5073283;28;20040;-72
2023/07/15 01:26:29;;;;;;;1999.90;999.90;;;20.30;94.50;;;;;;5073064;28;20029;-71
2023/07/15 01:28:55;;;;;;;1999.90;999.90;;;20.30;94.60;;;;;;5074664;28;20044;-71
2023/07/15 01:31:20;;;;;;;1999.90;999.90;;;20.20;94.70;;;;;;5074455;28;20514;-72
2023/07/15 01:33:47;;;;;;;1999.90;999.90;;;20.20;94.70;;;;;;5074594;28;20033;-72
2023/07/15 01:36:13;;;;;;;1999.90;999.90;;;20.20;95.10;;;;;;5073508;28;20502;-72
2023/07/15 01:38:40;;;;;;;1999.90;999.90;;;20.20;95.40;;;;;;5074416;28;20191;-72
2023/07/15 01:41:05;;;;;;;1999.90;999.90;;;20.20;95.70;;;;;;5072591;28;20086;-71
2023/07/15 01:43:31;;;;;;;1999.90;999.90;;;20.20;95.60;;;;;;5074225;28;20451;-72
2023/07/15 01:45:57;;;;;;;1999.90;999.90;;;20.20;95.70;;;;;;5074524;28;20054;-72
2023/07/15 01:48:25;;;;;;;1999.90;999.90;;;20.10;95.60;;;;;;5074369;28;20171;-71
2023/07/15 01:50:51;;;;;;;1999.90;999.90;;;20.20;95.60;;;;;;5074104;28;20032;-71
2023/07/15 01:53:16;;;;;;;1999.90;999.90;;;20.30;95.60;;;;;;5072551;28;20045;-71
2023/07/15 01:55:42;;;;;;;1999.90;999.90;;;20.20;95.40;;;;;;5074105;28;20028;-72
2023/07/15 01:58:08;;;;;;;1999.90;999.90;;;20.20;95.80;;;;;;5074383;28;20029;-72
2023/07/15 02:00:33;;;;;;;1999.90;999.90;;;20.10;95.60;;;;;;5074175;28;20059;-71
2023/07/15 02:02:59;;;;;;;1999.90;999.90;;;20.00;95.80;;;;;;5073697;28;20033;-71
2023/07/15 02:05:24;;;;;;;1999.90;999.90;;;19.90;96.10;;;;;;5074056;28;20029;-72
2023/07/15 02:07:50;;;;;;;1999.90;999.90;;;19.80;96.50;;;;;;5074210;28;20033;-72
2023/07/15 02:10:15;;;;;;;1999.90;999.90;;;19.60;96.70;;;;;;5074078;28;20441;-71
2023/07/15 02:12:41;;;;;;;1999.90;999.90;;;19.50;97.10;;;;;;5072231;28;20482;-71
2023/07/15 02:15:07;;;;;;;1999.90;999.90;;;19.40;97.90;;;;;;5073996;28;20553;-72
2023/07/15 02:17:33;;;;;;;1999.90;999.90;;;19.30;97.80;;;;;;5073997;28;20064;-72
2023/07/15 02:19:59;;;;;;;1999.90;999.90;;;19.20;98.10;;;;;;5073974;28;20033;-71
2023/07/15 02:22:26;;;;;;;1999.90;999.90;;;19.10;98.60;;;;;;5073562;28;20037;-71
2023/07/15 02:24:51;;;;;;;1999.90;999.90;;;19.10;98.80;;;;;;5073920;28;20029;-71
2023/07/15 02:27:17;;;;;;;1999.90;999.90;;;19.00;99.00;;;;;;5073867;28;20021;-71
2023/07/15 02:29:44;;;;;;;1999.90;999.90;;;18.90;99.20;;;;;;5074005;28;20033;-72
2023/07/15 02:32:10;;;;;;;1999.90;999.90;;;18.70;99.50;;;;;;5073283;28;20121;-71
2023/07/15 02:34:35;;;;;;;1999.90;999.90;;;18.60;99.60;;;;;;5073840;28;20112;-72
2023/07/15 02:37:01;;;;;;;1999.90;999.90;;;18.50;99.90;;;;;;5073977;28;20033;-71
2023/07/15 02:39:26;;;;;;;1999.90;999.90;;;18.40;99.90;;;;;;5073620;28;20048;-72
2023/07/15 02:41:52;;;;;;;1999.90;999.90;;;18.30;99.90;;;;;;5073288;28;20029;-71
2023/07/15 02:44:17;;;;;;;1999.90;999.90;;;18.30;99.90;;;;;;5073845;28;20037;-72
2023/07/15 02:46:43;;;;;;;1999.90;999.90;;;18.10;99.90;;;;;;5073086;28;20040;-71
2023/07/15 02:49:09;;;;;;;1999.90;999.90;;;18.10;99.90;;;;;;5076890;28;20068;-72
2023/07/15 02:51:34;;;;;;;1999.90;999.90;;;18.00;99.90;;;;;;5076583;28;20040;-72
2023/07/15 02:54:01;;;;;;;1999.90;999.90;;;17.90;99.90;;;;;;5077012;28;20415;-72
2023/07/15 02:56:26;;;;;;;1999.90;999.90;;;17.90;99.90;;;;;;5076744;28;20154;-72
2023/07/15 02:58:53;;;;;;;1999.90;999.90;;;17.80;99.90;;;;;;5077020;28;20581;-72
2023/07/15 03:01:19;;;;;;;1999.90;999.90;;;17.70;99.90;;;;;;5076507;28;20029;-72
2023/07/15 03:03:45;;;;;;;1999.90;999.90;;;17.70;99.90;;;;;;5076962;28;20032;-72
2023/07/15 03:06:12;;;;;;;1999.90;999.90;;;17.80;99.90;;;;;;5076923;28;20029;-72
2023/07/15 03:08:37;;;;;;;1999.90;999.90;;;17.70;99.90;;;;;;5076832;28;20033;-72
2023/07/15 03:11:07;;;;;;;1999.90;999.90;;;17.70;99.90;;;;;;5075992;28;20033;-72
2023/07/15 03:13:32;;;;;;;1999.90;999.90;;;17.70;99.90;;;;;;5076656;28;20111;-72
2023/07/15 03:15:58;;;;;;;1999.90;999.90;;;17.70;99.90;;;;;;5076747;28;20108;-72
2023/07/15 03:18:25;;;;;;;1999.90;999.90;;;17.60;99.90;;;;;;5076204;28;20033;-72
2023/07/15 03:20:52;;;;;;;1999.90;999.90;;;17.60;99.90;;;;;;5076282;28;20037;-72
2023/07/15 03:23:18;;;;;;;1999.90;999.90;;;17.50;99.90;;;;;;5076558;28;20103;-72
2023/07/15 03:25:44;;;;;;;1999.90;999.90;;;17.60;99.90;;;;;;5076729;28;20110;-72
2023/07/15 03:28:11;;;;;;;1999.90;999.90;;;17.60;99.90;;;;;;5076529;28;20025;-72
2023/07/15 03:30:36;;;;;;;1999.90;999.90;;;17.60;99.90;;;;;;5076373;28;20033;-72
2023/07/15 03:33:02;;;;;;;1999.90;999.90;;;17.60;99.90;;;;;;5075892;28;20447;-72
2023/07/15 03:35:27;;;;;;;1999.90;999.90;;;17.60;99.90;;;;;;5076453;28;20056;-72
2023/07/15 03:37:53;;;;;;;1999.90;999.90;;;17.60;99.90;;;;;;5076354;28;20068;-72
2023/07/15 03:40:19;;;;;;;1999.90;999.90;;;17.50;99.90;;;;;;5076372;28;20045;-72
2023/07/15 03:42:44;;;;;;;1999.90;999.90;;;17.60;99.90;;;;;;5075816;28;20375;-72
2023/07/15 03:45:10;;;;;;;1999.90;999.90;;;17.60;99.90;;;;;;5076410;28;20043;-72
2023/07/15 03:47:36;;;;;;;1999.90;999.90;;;17.50;99.90;;;;;;5074688;28;20116;-72
2023/07/15 03:50:05;;;;;;;1999.90;999.90;;;17.40;99.90;;;;;;5076284;28;20479;-72
2023/07/15 03:52:31;;;;;;;1999.90;999.90;;;17.40;99.90;;;;;;5075637;28;20040;-72
2023/07/15 03:54:58;;;;;;;1999.90;999.90;;;17.30;99.90;;;;;;5076145;28;20033;-72
2023/07/15 03:57:23;;;;;;;1999.90;999.90;;;17.20;99.90;;;;;;5074332;28;20481;-72
2023/07/15 03:59:49;;;;;;;1999.90;999.90;;;17.20;99.90;;;;;;5074864;28;20045;-72
2023/07/15 04:02:14;;;;;;;1999.90;999.90;;;17.20;99.90;;;;;;5075024;28;20041;-72
2023/07/15 04:04:41;;;;;;;1999.90;999.90;;;17.10;99.90;;;;;;5075924;28;20535;-72
2023/07/15 04:07:08;;;;;;;1999.90;999.90;;;17.10;99.90;;;;;;5076213;28;20025;-72
2023/07/15 04:09:34;;;;;;;1999.90;999.90;;;17.10;99.90;;;;;;5076020;28;20033;-72
2023/07/15 04:12:00;;;;;;;1999.90;999.90;;;17.10;99.90;;;;;;5073324;28;20033;-72
2023/07/15 04:14:26;;;;;;;1999.90;999.90;;;17.10;99.90;;;;;;5075953;28;20037;-71
2023/07/15 04:16:52;;;;;;;1999.90;999.90;;;17.20;99.90;;;;;;5075927;28;20025;-71
2023/07/15 04:19:17;;;;;;;1999.90;999.90;;;17.20;99.90;;;;;;5075974;28;20041;-71
2023/07/15 04:21:43;;;;;;;1999.90;999.90;;;17.20;99.90;;;;;;5075344;28;20025;-71
2023/07/15 04:24:08;;;;;;;1999.90;999.90;;;17.20;99.90;;;;;;5076048;28;20128;-71
2023/07/15 04:26:34;;;;;;;1999.90;999.90;;;17.20;99.90;;;;;;5075743;28;20429;-71
2023/07/15 04:28:59;;;;;;;1999.90;999.90;;;17.30;99.90;;;;;;5074135;28;20461;-71
2023/07/15 04:31:25;;;;;;;1999.90;999.90;;;17.30;99.90;;;;;;5073984;28;20394;-70
2023/07/15 04:33:51;;;;;;;1999.90;999.90;;;17.40;99.90;;;;;;5075969;28;20045;-71
2023/07/15 04:36:21;;;;;;;1999.90;999.90;;;17.40;99.90;;;;;;5075847;28;20171;-71
2023/07/15 04:38:47;;;;;;;1999.90;999.90;;;17.40;99.90;;;;;;5075515;28;20120;-71
2023/07/15 04:41:12;;;;;;;1999.90;999.90;;;17.40;99.90;;;;;;5075291;28;20039;-71
2023/07/15 04:43:38;;;;;;;1999.90;999.90;;;17.50;99.90;;;;;;5075601;28;20037;-71
2023/07/15 04:46:04;;;;;;;1999.90;999.90;;;17.40;99.90;;;;;;5075483;28;20108;-71
2023/07/15 04:48:30;;;;;;;1999.90;999.90;;;17.50;99.90;;;;;;5075566;28;20041;-71
2023/07/15 04:50:56;;;;;;;1999.90;999.90;;;17.60;99.90;;;;;;5074700;28;20036;-71
2023/07/15 04:53:22;;;;;;;1999.90;999.90;;;17.60;99.90;;;;;;5075205;28;20107;-71
2023/07/15 04:55:48;;;;;;;1999.90;999.90;;;17.70;99.90;;;;;;5075233;28;20386;-71
2023/07/15 04:58:18;;;;;;;1999.90;999.90;;;17.80;99.90;;;;;;5075313;28;20129;-71
2023/07/15 05:00:44;;;;;;;1999.90;999.90;;;17.80;99.90;;;;;;5075531;28;20479;-72
2023/07/15 05:03:10;;;;;;;1999.90;999.90;;;17.90;99.90;;;;;;5074772;28;20445;-71
2023/07/15 05:05:35;;;;;;;1999.90;999.90;;;18.00;99.90;;;;;;5074937;28;20029;-70
2023/07/15 05:08:27;;;;;;;1999.90;999.90;;;18.00;99.90;;;;;;5073499;28;20033;-71
2023/07/15 05:10:54;;;;;;;1999.90;999.90;;;18.10;99.90;;;;;;5071649;28;20043;-71
2023/07/15 05:13:19;;;;;;;1999.90;999.90;;;18.20;99.90;;;;;;5075116;28;20124;-71
2023/07/15 05:15:45;;;;;;;1999.90;999.90;;;18.40;99.90;;;;;;5073353;28;20504;-71
2023/07/15 05:18:11;;;;;;;1999.90;999.90;;;18.50;99.90;;;;;;5074773;28;20045;-72
2023/07/15 05:20:37;;;;;;;1999.90;999.90;;;18.70;99.90;;;;;;5074599;28;20112;-71
2023/07/15 05:23:03;;;;;;;1999.90;999.90;;;18.80;99.90;;;;;;5074491;28;20032;-71
2023/07/15 05:25:30;;;;;;;1999.90;999.90;;;18.90;99.90;;;;;;5074918;28;20040;-71
2023/07/15 05:27:56;;;;;;;1999.90;999.90;;;19.10;99.90;;;;;;5074927;28;20061;-70
2023/07/15 05:30:22;;;;;;;1999.90;999.90;;;19.20;99.90;;;;;;5074537;28;20041;-71
2023/07/15 05:32:48;;;;;;;1999.90;999.90;;;19.40;99.90;;;;;;5074035;28;20163;-71
2023/07/15 05:35:14;;;;;;;1999.90;999.90;;;19.50;99.90;;;;;;5074583;28;20033;-71
2023/07/15 05:37:40;;;;;;;1999.90;999.90;;;19.60;99.90;;;;;;5073190;28;20033;-72
2023/07/15 05:40:09;;;;;;;1999.90;999.90;;;19.70;99.90;;;;;;5074460;28;20048;-71
2023/07/15 05:42:45;;;;;;;1999.90;999.90;;;19.80;99.90;;;;;;5074230;28;20109;-70
2023/07/15 05:45:11;;;;;;;1999.90;999.90;;;19.80;99.90;;;;;;5074541;28;20033;-70
2023/07/15 05:47:39;;;;;;;1999.90;999.90;;;19.80;99.90;;;;;;5074339;28;20487;-70
2023/07/15 05:50:06;;;;;;;1999.90;999.90;;;19.80;99.90;;;;;;5074289;28;20044;-71
2023/07/15 05:52:32;;;;;;;1999.90;999.90;;;20.00;99.90;;;;;;5073884;28;20029;-72
2023/07/15 05:54:57;;;;;;;1999.90;999.90;;;20.10;99.90;;;;;;5074540;28;20479;-71
2023/07/15 05:57:23;;;;;;;1999.90;999.90;;;20.30;99.90;;;;;;5074494;28;20026;-71
2023/07/15 05:59:49;;;;;;;1999.90;999.90;;;20.40;99.90;;;;;;5074203;28;20477;-71
2023/07/15 06:02:14;;;;;;;1999.90;999.90;;;20.40;99.90;;;;;;5073742;28;20502;-72
2023/07/15 06:04:40;;;;;;;1999.90;999.90;;;20.60;99.90;;;;;;5074296;28;20033;-71
2023/07/15 06:07:06;;;;;;;1999.90;999.90;;;20.70;99.90;;;;;;5074140;28;20051;-72
2023/07/15 06:09:31;;;;;;;1999.90;999.90;;;20.80;99.90;;;;;;5074265;28;20107;-71
2023/07/15 06:11:57;;;;;;;1999.90;999.90;;;21.00;99.90;;;;;;5073548;28;20091;-71
2023/07/15 06:14:22;;;;;;;1999.90;999.90;;;21.20;99.90;;;;;;5074403;28;20033;-72
2023/07/15 06:16:48;;;;;;;1999.90;999.90;;;21.30;99.90;;;;;;5074187;28;20029;-72
2023/07/15 06:19:13;;;;;;;1999.90;999.90;;;21.50;99.90;;;;;;5074249;28;20045;-72
2023/07/15 06:21:41;;;;;;;1999.90;999.90;;;21.60;99.90;;;;;;5074385;28;20033;-72
2023/07/15 06:24:07;;;;;;;1999.90;999.90;;;21.90;99.70;;;;;;5076079;28;20116;-72
2023/07/15 06:26:32;;;;;;;1999.90;999.90;;;22.20;98.00;;;;;;5077510;28;20432;-72
2023/07/15 06:28:59;;;;;;;1999.90;999.90;;;23.00;94.30;;;;;;5077757;28;20029;-72
2023/07/15 06:31:26;;;;;;;1999.90;999.90;;;23.30;93.20;;;;;;5077020;28;20053;-72
2023/07/15 06:33:53;;;;;;;1999.90;999.90;;;23.90;92.40;;;;;;5077590;28;20033;-73
2023/07/15 06:36:19;;;;;;;1999.90;999.90;;;24.30;91.00;;;;;;5075952;28;20029;-72
2023/07/15 06:38:44;;;;;;;1999.90;999.90;;;24.70;90.00;;;;;;5077567;28;20030;-72
2023/07/15 06:41:10;;;;;;;1999.90;999.90;;;25.20;87.30;;;;;;5076721;28;20032;-72
2023/07/15 06:43:35;;;;;;;1999.90;999.90;;;25.60;85.10;;;;;;5076231;28;20175;-72
2023/07/15 06:46:01;;;;;;;1999.90;999.90;;;26.00;82.20;;;;;;5077188;28;20037;-74
2023/07/15 06:48:27;;;;;;;1999.90;999.90;;;26.20;80.70;;;;;;5077457;28;20029;-77
2023/07/15 06:50:52;;;;;;;1999.90;999.90;;;26.30;81.80;;;;;;5075402;28;20041;-71
2023/07/15 06:53:18;;;;;;;1999.90;999.90;;;26.20;79.90;;;;;;5076774;28;20090;-72
2023/07/15 06:55:43;;;;;;;1999.90;999.90;;;26.20;79.30;;;;;;5076776;28;20040;-73
2023/07/15 06:58:09;;;;;;;1999.90;999.90;;;26.20;79.30;;;;;;5077062;28;20041;-72
2023/07/15 07:00:34;;;;;;;1999.90;999.90;;;26.30;77.80;;;;;;5077042;28;20076;-72
2023/07/15 07:03:00;;;;;;;1999.90;999.90;;;26.50;76.60;;;;;;5076710;28;20090;-75
2023/07/15 07:05:26;;;;;;;1999.90;999.90;;;26.70;76.70;;;;;;5077161;28;20536;-72
2023/07/15 07:07:53;;;;;;;1999.90;999.90;;;26.90;76.00;;;;;;5077006;28;20478;-71
2023/07/15 07:10:18;;;;;;;1999.90;999.90;;;27.10;75.40;;;;;;5077191;28;20108;-71
2023/07/15 07:12:44;;;;;;;1999.90;999.90;;;27.40;74.00;;;;;;5076118;28;20028;-71
2023/07/15 07:15:10;;;;;;;1999.90;999.90;;;28.00;73.90;;;;;;5076816;28;20036;-71
2023/07/15 07:17:35;;;;;;;1999.90;999.90;;;28.50;72.00;;;;;;5076852;28;20033;-75
2023/07/15 07:20:03;;;;;;;1999.90;999.90;;;29.00;72.40;;;;;;5076730;28;20371;-71
2023/07/15 07:22:29;;;;;;;1999.90;999.90;;;29.00;70.50;;;;;;5074688;28;20479;-72
2023/07/15 07:24:54;;;;;;;1999.90;999.90;;;29.00;71.40;;;;;;5076426;28;20114;-71
2023/07/15 07:27:20;;;;;;;1999.90;999.90;;;28.80;70.90;;;;;;5076858;28;20457;-71
2023/07/15 07:29:45;;;;;;;1999.90;999.90;;;28.80;70.60;;;;;;5075247;28;20037;-72
2023/07/15 07:32:11;;;;;;;1999.90;999.90;;;29.00;70.00;;;;;;5074607;28;20028;-72
2023/07/15 07:34:36;;;;;;;1999.90;999.90;;;29.10;69.00;;;;;;5076573;28;20395;-72
2023/07/15 07:37:02;;;;;;;1999.90;999.90;;;29.30;67.70;;;;;;5076472;28;20056;-72
2023/07/15 07:39:28;;;;;;;1999.90;999.90;;;29.40;67.40;;;;;;5075788;28;20585;-72
2023/07/15 07:41:55;;;;;;;1999.90;999.90;;;29.50;67.60;;;;;;5075755;28;20033;-72
2023/07/15 07:44:20;;;;;;;1999.90;999.90;;;29.70;67.10;;;;;;5076227;28;20033;-74
2023/07/15 07:46:46;;;;;;;1999.90;999.90;;;30.20;66.40;;;;;;5076448;28;20419;-78
2023/07/15 07:49:11;;;;;;;1999.90;999.90;;;30.50;64.80;;;;;;5076234;28;20457;-73
2023/07/15 07:51:37;;;;;;;1999.90;999.90;;;30.90;64.20;;;;;;5075766;28;20566;-73
2023/07/15 07:54:02;;;;;;;1999.90;999.90;;;31.00;65.60;;;;;;5075638;28;20427;-73
2023/07/15 07:56:28;;;;;;;1999.90;999.90;;;30.80;65.90;;;;;;5076120;28;20394;-73
2023/07/15 07:58:57;;;;;;;1999.90;999.90;;;30.60;65.40;;;;;;5076077;28;20086;-72
2023/07/15 08:01:23;;;;;;;1999.90;999.90;;;30.50;65.00;;;;;;5075446;28;20032;-73
2023/07/15 08:03:49;;;;;;;1999.90;999.90;;;30.80;65.30;;;;;;5076030;28;20037;-73
2023/07/15 08:06:15;;;;;;;1999.90;999.90;;;31.30;65.00;;;;;;5075978;28;20071;-73
2023/07/15 08:08:41;;;;;;;1999.90;999.90;;;31.60;64.60;;;;;;5076099;28;20037;-73
2023/07/15 08:11:06;;;;;;;1999.90;999.90;;;31.50;64.90;;;;;;5075661;28;20025;-72
2023/07/15 08:13:32;;;;;;;1999.90;999.90;;;31.50;63.10;;;;;;5075955;28;20037;-73
2023/07/15 08:15:58;;;;;;;1999.90;999.90;;;31.50;65.00;;;;;;5075851;28;20032;-73
2023/07/15 08:18:24;;;;;;;1999.90;999.90;;;31.50;62.80;;;;;;5075703;28;20052;-72
2023/07/15 08:20:51;;;;;;;1999.90;999.90;;;31.60;63.10;;;;;;5073481;28;20041;-72
2023/07/15 08:23:16;;;;;;;1999.90;999.90;;;31.60;63.10;;;;;;5075263;28;20030;-71
2023/07/15 08:25:42;;;;;;;1999.90;999.90;;;31.50;63.30;;;;;;5073674;28;20080;-73
2023/07/15 08:28:08;;;;;;;1999.90;999.90;;;31.60;63.70;;;;;;5075484;28;20119;-72
2023/07/15 08:30:36;;;;;;;1999.90;999.90;;;31.80;62.10;;;;;;5074922;28;20112;-72
2023/07/15 08:33:03;;;;;;;1999.90;999.90;;;32.10;63.50;;;;;;5073926;28;20029;-72
2023/07/15 08:35:29;;;;;;;1999.90;999.90;;;32.30;65.10;;;;;;5075542;28;20072;-73
2023/07/15 08:37:55;;;;;;;1999.90;999.90;;;32.30;61.20;;;;;;5075399;28;20092;-72
2023/07/15 08:40:23;;;;;;;1999.90;999.90;;;32.30;61.80;;;;;;5074988;28;20045;-72
2023/07/15 08:42:49;;;;;;;1999.90;999.90;;;32.10;62.20;;;;;;5074655;28;20453;-72
2023/07/15 08:45:14;;;;;;;1999.90;999.90;;;32.10;62.90;;;;;;5074280;28;20033;-73
2023/07/15 08:47:43;;;;;;;1999.90;999.90;;;32.30;62.30;;;;;;5075344;28;20029;-73
2023/07/15 08:50:11;;;;;;;1999.90;999.90;;;32.40;64.10;;;;;;5075088;28;20025;-73
2023/07/15 08:52:38;;;;;;;1999.90;999.90;;;32.50;62.70;;;;;;5074787;28;20033;-72
2023/07/15 08:55:06;;;;;;;1999.90;999.90;;;32.80;61.60;;;;;;5074848;28;20036;-72
2023/07/15 08:57:32;;;;;;;1999.90;999.90;;;32.60;61.90;;;;;;5075007;28;20029;-72
2023/07/15 08:59:58;;;;;;;1999.90;999.90;;;32.40;60.50;;;;;;5074726;28;20048;-72
2023/07/15 09:02:24;;;;;;;1999.90;999.90;;;32.00;61.90;;;;;;5074497;28;20052;-72
2023/07/15 09:04:49;;;;;;;1999.90;999.90;;;32.20;61.90;;;;;;5075051;28;20035;-72
2023/07/15 09:07:15;;;;;;;1999.90;999.90;;;32.30;62.40;;;;;;5074995;28;20087;-72
2023/07/15 09:09:42;;;;;;;1999.90;999.90;;;32.50;61.10;;;;;;5075097;28;20064;-72
2023/07/15 09:12:10;;;;;;;1999.90;999.90;;;32.90;59.90;;;;;;5074196;28;20037;-72
2023/07/15 09:14:43;;;;;;;1999.90;999.90;;;33.00;60.00;;;;;;5074704;28;20037;-72
2023/07/15 09:17:15;;;;;;;1999.90;999.90;;;33.30;59.50;;;;;;5074912;28;20025;-72
2023/07/15 09:19:41;;;;;;;1999.90;999.90;;;33.50;59.00;;;;;;5074818;28;20060;-72
2023/07/15 09:22:09;;;;;;;1999.90;999.90;;;33.50;58.90;;;;;;5074312;28;20037;-72
2023/07/15 09:24:37;;;;;;;1999.90;999.90;;;34.00;57.60;;;;;;5073058;28;20402;-72
2023/07/15 09:27:03;;;;;;;1999.90;999.90;;;34.40;57.50;;;;;;5074713;28;20029;-72
2023/07/15 09:29:30;;;;;;;1999.90;999.90;;;34.30;56.60;;;;;;5074533;28;20104;-72
2023/07/15 09:31:56;;;;;;;1999.90;999.90;;;34.80;55.30;;;;;;5073453;28;20036;-72
2023/07/15 09:34:26;;;;;;;1999.90;999.90;;;35.10;55.70;;;;;;5074684;28;20533;-72
2023/07/15 09:36:53;;;;;;;1999.90;999.90;;;34.90;55.40;;;;;;5074638;28;20029;-72
2023/07/15 09:39:22;;;;;;;1999.90;999.90;;;34.80;54.30;;;;;;5074537;28;20111;-72
2023/07/15 09:42:05;;;;;;;1999.90;999.90;;;34.80;54.60;;;;;;5073982;28;20033;-72
2023/07/15 09:44:38;;;;;;;1999.90;999.90;;;35.00;55.10;;;;;;5074057;28;20067;-72
2023/07/15 09:47:04;;;;;;;1999.90;999.90;;;35.30;53.90;;;;;;5074620;28;20068;-72
2023/07/15 09:49:30;;;;;;;1999.90;999.90;;;35.60;53.80;;;;;;5074450;28;20491;-73
2023/07/15 09:51:58;;;;;;;1999.90;999.90;;;36.10;52.90;;;;;;5073708;28;20045;-72
2023/07/15 09:54:26;;;;;;;1999.90;999.90;;;35.90;50.50;;;;;;5074267;28;20033;-71
2023/07/15 09:56:55;;;;;;;1999.90;999.90;;;35.80;50.30;;;;;;5075445;28;20465;-71
2023/07/15 09:59:22;;;;;;;1999.90;999.90;;;36.00;50.50;;;;;;5077554;28;20122;-71
2023/07/15 10:01:51;;;;;;;1999.90;999.90;;;36.30;49.70;;;;;;5077510;28;20063;-71
2023/07/15 10:04:22;;;;;;;1999.90;999.90;;;36.40;49.30;;;;;;5077810;28;20515;-71
2023/07/15 10:06:49;;;;;;;1999.90;999.90;;;36.60;48.80;;;;;;5077993;28;20032;-71
2023/07/15 10:09:15;;;;;;;1999.90;999.90;;;36.80;48.60;;;;;;5077677;28;20052;-71
2023/07/15 10:11:40;;;;;;;1999.90;999.90;;;37.30;48.30;;;;;;5077010;28;20033;-71
2023/07/15 10:14:06;;;;;;;1999.90;999.90;;;37.80;48.30;;;;;;5077817;28;20068;-72
2023/07/15 10:16:36;;;;;;;1999.90;999.90;;;38.00;46.80;;;;;;5077737;28;20040;-71
2023/07/15 10:19:02;;;;;;;1999.90;999.90;;;37.90;46.30;;;;;;5077454;28;20541;-71
2023/07/15 10:21:28;;;;;;;1999.90;999.90;;;37.60;46.60;;;;;;5077077;28;20115;-72
2023/07/15 10:24:17;;;;;;;1999.90;999.90;;;37.00;45.80;;;;;;5077383;28;20116;-72
2023/07/15 10:26:49;;;;;;;1999.90;999.90;;;36.40;47.60;;;;;;5077501;28;20068;-72
2023/07/15 10:29:14;;;;;;;1999.90;999.90;;;36.10;47.50;;;;;;5077595;28;20029;-72
2023/07/15 10:31:40;;;;;;;1999.90;999.90;;;35.50;48.70;;;;;;5076923;28;20036;-72
2023/07/15 10:34:06;;;;;;;1999.90;999.90;;;35.40;49.10;;;;;;5077414;28;20501;-72
2023/07/15 10:36:44;;;;;;;1999.90;999.90;;;35.50;49.50;;;;;;5077169;28;20412;-72
2023/07/15 10:39:18;;;;;;;1999.90;999.90;;;35.90;48.60;;;;;;5077079;28;20380;-72
2023/07/15 10:41:49;;;;;;;1999.90;999.90;;;36.40;48.30;;;;;;5076599;28;20091;-72
2023/07/15 10:44:25;;;;;;;1999.90;999.90;;;36.40;47.70;;;;;;5077382;28;20036;-72
2023/07/15 10:47:03;;;;;;;1999.90;999.90;;;36.70;48.30;;;;;;5076887;28;20086;-71
2023/07/15 10:49:30;;;;;;;1999.90;999.90;;;36.70;48.00;;;;;;5077306;28;20108;-71
2023/07/15 10:51:56;;;;;;;1999.90;999.90;;;36.70;49.30;;;;;;5076071;28;20037;-72
2023/07/15 10:54:22;;;;;;;1999.90;999.90;;;36.50;47.70;;;;;;5077067;28;20029;-71
2023/07/15 10:56:48;;;;;;;1999.90;999.90;;;36.50;50.10;;;;;;5077105;28;20029;-72
2023/07/15 10:59:14;;;;;;;1999.90;999.90;;;36.40;49.00;;;;;;5076844;28;20490;-72
2023/07/15 11:01:40;;;;;;;1999.90;999.90;;;36.40;48.10;;;;;;5076139;28;20471;-72
2023/07/15 11:04:06;;;;;;;1999.90;999.90;;;36.00;48.00;;;;;;5075564;28;20108;-71
2023/07/15 11:06:33;;;;;;;1999.90;999.90;;;35.80;48.80;;;;;;5075427;28;20509;-71
2023/07/15 11:09:12;;;;;;;1999.90;999.90;;;35.70;48.10;;;;;;5076099;28;20032;-72
2023/07/15 11:11:38;;;;;;;1999.90;999.90;;;35.70;49.50;;;;;;5076579;28;20056;-71
2023/07/15 11:14:03;;;;;;;1999.90;999.90;;;35.70;49.60;;;;;;5076444;28;20045;-72
2023/07/15 11:16:29;;;;;;;1999.90;999.90;;;35.70;50.00;;;;;;5076811;28;20422;-72
2023/07/15 11:18:54;;;;;;;1999.90;999.90;;;36.00;49.00;;;;;;5076611;28;20498;-72
2023/07/15 11:21:20;;;;;;;1999.90;999.90;;;36.50;48.70;;;;;;5076026;28;20547;-71
2023/07/15 11:23:46;;;;;;;1999.90;999.90;;;36.40;50.00;;;;;;5076443;28;20111;-71
2023/07/15 11:26:12;;;;;;;1999.90;999.90;;;36.60;50.00;;;;;;5076565;28;20041;-71
2023/07/15 11:28:48;;;;;;;1999.90;999.90;;;36.70;48.80;;;;;;5076747;28;20119;-72
2023/07/15 11:31:14;;;;;;;1999.90;999.90;;;36.70;49.60;;;;;;5076155;28;20039;-72
2023/07/15 11:33:39;;;;;;;1999.90;999.90;;;36.80;48.80;;;;;;5076495;28;20031;-72
2023/07/15 11:36:05;;;;;;;1999.90;999.90;;;36.60;49.20;;;;;;5076534;28;20025;-71
2023/07/15 11:38:33;;;;;;;1999.90;999.90;;;36.60;48.10;;;;;;5076251;28;20025;-72
2023/07/15 11:41:00;;;;;;;1999.90;999.90;;;36.70;49.90;;;;;;5075607;28;20493;-71
2023/07/15 11:43:27;;;;;;;1999.90;999.90;;;36.70;48.20;;;;;;5076325;28;20025;-72
2023/07/15 11:46:00;;;;;;;1999.90;999.90;;;36.80;47.00;;;;;;5076455;28;20037;-72
2023/07/15 11:48:30;;;;;;;1999.90;999.90;;;36.70;47.00;;;;;;5076080;28;20029;-72
2023/07/15 11:50:57;;;;;;;1999.90;999.90;;;36.40;47.20;;;;;;5075397;28;20041;-72
2023/07/15 11:53:33;;;;;;;1999.90;999.90;;;36.80;49.90;;;;;;5076137;28;20025;-72
2023/07/15 11:55:59;;;;;;;1999.90;999.90;;;37.40;47.80;;;;;;5076197;28;20112;-73